Flight Track Log - Related Links

Times and Time Zones

All times are in EDT time to prevent confusion due to time zone crossing. See the SKW5586 flight status page for this flight to view local times or setup timezone preferences in your user account.

Time Position Orientation Groundspeed Altitude Reporting Facility
EDT Latitude Longitude Course Direction KTS MPH feet Rate Location/Type
Sat 12:35:32 PM 37.6080 -122.3135 103° East  Level Estimated
Sat 12:36:32 PM 37.5873 -122.1984 103° East  Level Estimated
Sat 12:37:32 PM 37.5664 -122.0833 103° East  Level Estimated
Sat 12:38:32 PM 37.5455 -121.9683 103° East  Level Estimated
Sat 12:39:32 PM 37.5244 -121.8534 103° East  Level Estimated
Sat 12:40:32 PM 37.5033 -121.7386 103° East  Level Estimated
Sat 12:41:32 PM 37.4820 -121.6238 103° East  Level Estimated
Sat 12:42:32 PM 37.4606 -121.5091 103° East  Level Estimated
Sat 12:43:32 PM 37.4392 -121.3944 103° East  Level Estimated
Sat 12:44:32 PM 37.4175 -121.2798 103° East  Level Estimated
Sat 12:45:32 PM 37.3958 -121.1653 103° East  Level Estimated
Sat 12:46:32 PM 37.3740 -121.0509 104° East  Level Estimated
Sat 12:47:32 PM 37.3521 -120.9365 104° East  Level Estimated
Sat 12:48:32 PM 37.3301 -120.8222 104° East  Level Estimated
Sat 12:49:32 PM 37.3079 -120.7079 104° East  Level Estimated
Sat 12:50:32 PM 37.2856 -120.5937 104° East  Level Estimated
Sat 12:51:32 PM 37.2633 -120.4796 104° East  Level Estimated
Sat 12:52:32 PM 37.2408 -120.3655 104° East  Level Estimated
Sat 12:53:32 PM 37.2182 -120.2516 104° East  Level Estimated
Sat 12:54:32 PM 37.1955 -120.1377 104° East  Level Estimated
Sat 12:55:32 PM 37.1727 -120.0238 104° East  Level Estimated
Sat 12:56:32 PM 37.1498 -119.9100 104° East  Level Estimated
Sat 12:57:32 PM 37.1267 -119.7963 104° East  Level Estimated
Sat 12:58:32 PM 37.1036 -119.6827 104° East  Level Estimated
Sat 12:59:32 PM 37.0804 -119.5691 104° East  Level Estimated
Sat 01:00:32 PM 37.0570 -119.4556 104° East  Level Estimated
Sat 01:01:32 PM 37.0336 -119.3422 105° East  Level Estimated
Sat 01:02:32 PM 37.0100 -119.2288 105° East  Level Estimated
Sat 01:03:32 PM 36.9863 -119.1156 105° East  Level Estimated
Sat 01:04:32 PM 36.9625 -119.0023 105° East  Level Estimated
Sat 01:05:32 PM 36.9386 -118.8892 105° East  Level Estimated
Sat 01:06:32 PM 36.9146 -118.7761 105° East  Level Estimated
Sat 01:07:32 PM 36.8905 -118.6631 105° East  Level Estimated
Sat 01:08:32 PM 36.8663 -118.5502 105° East  Level Estimated
Sat 01:09:32 PM 36.8420 -118.4373 105° East  Level Estimated
Sat 01:10:32 PM 36.8176 -118.3246 105° East  Level Estimated
Sat 01:11:32 PM 36.7930 -118.2119 105° East  Level Estimated
Sat 01:12:32 PM 36.7684 -118.0992 105° East  Level Estimated
Sat 01:13:32 PM 36.7436 -117.9866 105° East  Level Estimated
Sat 01:14:32 PM 36.7188 -117.8741 105° East  Level Estimated
Sat 01:15:32 PM 36.6938 -117.7617 106° East  Level Estimated
Sat 01:16:32 PM 36.6688 -117.6494 106° East  Level Estimated
Sat 01:17:32 PM 36.6436 -117.5371 106° East  Level Estimated
Sat 01:18:32 PM 36.6183 -117.4249 106° East  Level Estimated
Sat 01:19:32 PM 36.5930 -117.3127 106° East  Level Estimated
Sat 01:20:32 PM 36.5675 -117.2007 106° East  Level Estimated
Sat 01:21:32 PM 36.5419 -117.0887 106° East  Level Estimated
Sat 01:22:32 PM 36.5162 -116.9768 106° East  Level Estimated
Sat 01:23:32 PM 36.4904 -116.8650 106° East  Level Estimated
Sat 01:24:32 PM 36.4645 -116.7532 106° East  Level Estimated
Sat 01:25:32 PM 36.4385 -116.6415 106° East  Level Estimated
Sat 01:26:32 PM 36.4124 -116.5299 106° East  Level Estimated
Sat 01:27:32 PM 36.3862 -116.4184 106° East  Level Estimated
Sat 01:28:32 PM 36.3599 -116.3069 106° East  Level Estimated
Sat 01:29:32 PM 36.3334 -116.1955 106° East  Level Estimated
Sat 01:30:32 PM 36.3069 -116.0842 107° East  Level Estimated
Sat 01:31:32 PM 36.2803 -115.9730 107° East  Level Estimated
Sat 01:32:32 PM 36.2536 -115.8618 107° East  Level Estimated
Sat 01:33:32 PM 36.2267 -115.7507 107° East  Level Estimated
Sat 01:34:32 PM 36.1998 -115.6397 107° East  Level Estimated
Sat 01:35:32 PM 36.1727 -115.5288 107° East  Level Estimated
Sat 01:36:32 PM 36.1456 -115.4180 107° East  Level Estimated
Sat 01:37:32 PM 36.1184 -115.3072 107° East  Level Estimated
Sat 01:38:32 PM 36.0910 -115.1965 107° East  Level Estimated
Sat 01:39:32 PM 36.0636 -115.0859 287° West  Level Estimated
Sat 01:40:32 PM 36.0910 -115.1965 107° East  Level Estimated
Sat 01:41:32 PM 36.0636 -115.0859 107° East  Level Estimated

Login

Don't have an account? Register now (free) for customized features, flight alerts, and more!